createdAt,value
2017-11-09T00:02:04.306Z,8.30
2017-11-09T00:04:38.912Z,8.30
2017-11-09T00:07:09.578Z,8.30
2017-11-09T00:09:40.807Z,8.30
2017-11-09T00:12:11.520Z,8.30
2017-11-09T00:14:41.929Z,8.30
2017-11-09T00:17:13.217Z,8.30
2017-11-09T00:19:43.833Z,8.20
2017-11-09T00:22:14.670Z,8.20
2017-11-09T00:24:45.190Z,8.20
2017-11-09T00:27:16.088Z,8.20
2017-11-09T00:29:46.882Z,8.20
2017-11-09T00:32:17.927Z,8.20
2017-11-09T00:34:49.049Z,8.20
2017-11-09T00:37:19.919Z,8.20
2017-11-09T00:39:51.323Z,8.20
2017-11-09T00:42:22.399Z,8.20
2017-11-09T00:44:54.220Z,8.20
2017-11-09T00:47:24.552Z,8.20
2017-11-09T00:49:55.485Z,8.20
2017-11-09T00:52:28.182Z,8.20
2017-11-09T00:54:58.967Z,8.30
2017-11-09T00:57:30.043Z,8.20
2017-11-09T01:00:02.687Z,8.20
2017-11-09T01:02:33.264Z,8.20
2017-11-09T01:05:04.117Z,8.20
2017-11-09T01:07:34.919Z,8.30
2017-11-09T01:10:05.368Z,8.30
2017-11-09T01:12:35.869Z,8.30
2017-11-09T01:15:06.248Z,8.30
2017-11-09T01:17:36.636Z,8.40
2017-11-09T01:20:08.999Z,8.40
2017-11-09T01:22:40.451Z,8.40
2017-11-09T01:25:12.119Z,8.50
2017-11-09T01:27:43.571Z,8.50
2017-11-09T01:30:14.421Z,8.50
2017-11-09T01:32:45.974Z,8.40
2017-11-09T01:35:16.926Z,8.40
2017-11-09T01:37:47.329Z,8.40
2017-11-09T01:40:18.280Z,8.30
2017-11-09T01:42:49.433Z,8.30
2017-11-09T01:45:20.733Z,8.40
2017-11-09T01:47:51.374Z,8.40
2017-11-09T01:50:22.208Z,8.40
2017-11-09T01:52:52.928Z,8.30
2017-11-09T01:55:23.815Z,8.40
2017-11-09T01:57:54.951Z,8.40
2017-11-09T02:00:26.814Z,8.30
2017-11-09T02:02:57.631Z,8.40
2017-11-09T02:05:28.397Z,8.40
2017-11-09T02:07:59.802Z,8.50
2017-11-09T02:10:30.094Z,8.40
2017-11-09T02:13:01.669Z,8.40
2017-11-09T02:15:33.009Z,8.40
2017-11-09T02:18:05.712Z,8.40
2017-11-09T02:20:37.092Z,8.40
2017-11-09T02:23:07.644Z,8.40
2017-11-09T02:25:38.622Z,8.40
2017-11-09T02:28:09.488Z,8.30
2017-11-09T02:30:40.705Z,8.40
2017-11-09T02:33:12.661Z,8.40
2017-11-09T02:35:43.954Z,8.40
2017-11-09T02:38:17.186Z,8.30
2017-11-09T02:40:49.090Z,8.40
2017-11-09T02:43:20.043Z,8.30
2017-11-09T02:45:51.947Z,8.30
2017-11-09T02:48:22.465Z,8.30
2017-11-09T02:50:53.508Z,8.30
2017-11-09T02:53:24.479Z,8.40
2017-11-09T02:55:55.515Z,8.40
2017-11-09T02:58:26.458Z,8.50
2017-11-09T03:00:58.738Z,8.50
2017-11-09T03:03:30.460Z,8.30
2017-11-09T03:06:01.451Z,8.30
2017-11-09T03:08:32.443Z,8.30
2017-11-09T03:11:04.238Z,8.20
2017-11-09T03:13:35.905Z,8.20
2017-11-09T03:16:06.788Z,8.20
2017-11-09T03:18:38.189Z,8.10
2017-11-09T03:21:09.347Z,8.10
2017-11-09T03:23:41.381Z,8.10
2017-11-09T03:26:13.936Z,8.10
2017-11-09T03:28:44.561Z,8.10
2017-11-09T03:31:15.139Z,8.10
2017-11-09T03:33:46.328Z,8.00
2017-11-09T03:36:17.382Z,8.00
2017-11-09T03:38:48.938Z,8.00
2017-11-09T03:41:19.598Z,8.00
2017-11-09T03:43:49.936Z,8.10
2017-11-09T03:46:21.414Z,8.10
2017-11-09T03:48:52.095Z,8.10
2017-11-09T03:51:23.407Z,8.10
2017-11-09T03:53:54.194Z,8.10
2017-11-09T03:56:27.387Z,7.90
2017-11-09T03:58:57.762Z,7.90
2017-11-09T04:01:28.496Z,7.90
2017-11-09T04:04:00.399Z,8.00
2017-11-09T04:06:32.195Z,8.00
2017-11-09T04:09:03.619Z,8.00
2017-11-09T04:11:34.390Z,8.00
2017-11-09T04:14:04.799Z,8.00
2017-11-09T04:16:36.062Z,8.10
2017-11-09T04:19:08.341Z,8.10
2017-11-09T04:21:39.466Z,8.00
2017-11-09T04:24:10.452Z,7.90
2017-11-09T04:26:41.367Z,7.80
2017-11-09T04:29:12.658Z,7.80
2017-11-09T04:31:44.157Z,7.80
2017-11-09T04:34:15.596Z,7.80
2017-11-09T04:36:46.194Z,7.80
2017-11-09T04:39:17.371Z,7.90
2017-11-09T04:41:47.978Z,7.90
2017-11-09T04:44:19.344Z,7.80
2017-11-09T04:46:50.567Z,7.70
2017-11-09T04:49:21.396Z,7.70
2017-11-09T04:51:52.991Z,7.70
2017-11-09T04:54:23.930Z,7.70
2017-11-09T04:56:54.809Z,7.70
2017-11-09T04:59:27.608Z,7.60
2017-11-09T05:01:58.189Z,7.60
2017-11-09T05:04:29.323Z,7.60
2017-11-09T05:06:59.993Z,7.60
2017-11-09T05:09:31.258Z,7.60
2017-11-09T05:12:01.585Z,7.70
2017-11-09T05:14:33.730Z,7.70
2017-11-09T05:17:04.587Z,7.60
2017-11-09T05:19:35.091Z,7.60
2017-11-09T05:22:05.361Z,7.60
2017-11-09T05:24:37.091Z,7.60
2017-11-09T05:27:08.068Z,7.60
2017-11-09T05:29:38.601Z,7.60
2017-11-09T05:32:09.450Z,7.60
2017-11-09T05:34:48.868Z,7.60
2017-11-09T05:37:22.770Z,7.60
2017-11-09T05:39:58.464Z,7.50
2017-11-09T05:42:29.830Z,7.60
2017-11-09T05:45:00.895Z,7.60
2017-11-09T05:47:32.630Z,7.60
2017-11-09T05:50:04.065Z,7.50
2017-11-09T05:52:34.952Z,7.50
2017-11-09T05:55:05.559Z,7.50
2017-11-09T05:57:36.753Z,7.50
2017-11-09T06:00:07.922Z,7.60
2017-11-09T06:02:38.540Z,7.60
2017-11-09T06:05:10.147Z,7.60
2017-11-09T06:07:40.587Z,7.60
2017-11-09T06:10:12.039Z,7.60
2017-11-09T06:12:42.808Z,7.60
2017-11-09T06:15:14.161Z,7.50
2017-11-09T06:17:46.502Z,7.60
2017-11-09T06:20:18.336Z,7.60
2017-11-09T06:22:49.118Z,7.60
2017-11-09T06:25:20.017Z,7.60
2017-11-09T06:27:50.525Z,7.60
2017-11-09T06:30:21.251Z,7.60
2017-11-09T06:32:53.426Z,7.50
2017-11-09T06:35:24.388Z,7.50
2017-11-09T06:37:55.426Z,7.50
2017-11-09T06:40:26.369Z,7.50
2017-11-09T06:42:56.988Z,7.50
2017-11-09T06:45:29.778Z,7.50
2017-11-09T06:48:01.644Z,7.50
2017-11-09T06:50:32.331Z,7.50
2017-11-09T06:53:03.325Z,7.50
2017-11-09T06:55:34.870Z,7.50
2017-11-09T06:58:05.561Z,7.50
2017-11-09T07:00:37.146Z,7.40
2017-11-09T07:03:08.085Z,7.40
2017-11-09T07:05:38.674Z,7.40
2017-11-09T07:08:09.768Z,7.50
2017-11-09T07:10:40.167Z,7.50
2017-11-09T07:13:10.553Z,7.40
2017-11-09T07:15:40.934Z,7.30
2017-11-09T07:18:11.532Z,7.30
2017-11-09T07:20:41.890Z,7.40
2017-11-09T07:23:13.117Z,7.50
2017-11-09T07:25:44.428Z,7.40
2017-11-09T07:28:16.032Z,7.40
2017-11-09T07:30:46.356Z,7.50
2017-11-09T07:33:17.085Z,7.50
2017-11-09T07:35:47.580Z,7.50
2017-11-09T07:38:19.824Z,7.40
2017-11-09T07:40:51.440Z,7.40
2017-11-09T07:43:21.957Z,7.40
2017-11-09T07:45:58.020Z,7.40
2017-11-09T07:48:28.596Z,7.40
2017-11-09T07:50:59.075Z,7.50
2017-11-09T07:53:29.467Z,7.50
2017-11-09T07:56:00.299Z,7.60
2017-11-09T07:58:31.941Z,7.60
2017-11-09T08:01:02.731Z,7.50
2017-11-09T08:03:34.256Z,7.60
2017-11-09T08:06:05.697Z,7.60
2017-11-09T08:08:37.169Z,7.50
2017-11-09T08:11:07.916Z,7.60
2017-11-09T08:13:39.382Z,7.60
2017-11-09T08:16:10.095Z,7.60
2017-11-09T08:18:41.036Z,7.60
2017-11-09T08:21:12.789Z,7.70
2017-11-09T08:23:43.712Z,7.70
2017-11-09T08:26:25.913Z,7.60
2017-11-09T08:29:03.200Z,7.60
2017-11-09T08:31:47.665Z,7.70
2017-11-09T08:34:20.057Z,7.60
2017-11-09T08:36:50.523Z,7.60
2017-11-09T08:39:22.030Z,7.70
2017-11-09T08:41:52.734Z,7.70
2017-11-09T08:44:23.604Z,7.80
2017-11-09T08:46:54.022Z,7.80
2017-11-09T08:49:24.451Z,7.80
2017-11-09T08:51:54.881Z,7.90
2017-11-09T08:54:25.610Z,7.90
2017-11-09T08:56:56.410Z,7.90
2017-11-09T08:59:27.389Z,7.80
2017-11-09T09:01:57.934Z,7.80
2017-11-09T09:04:28.364Z,7.80
2017-11-09T09:06:58.992Z,7.90
2017-11-09T09:09:30.827Z,8.00
2017-11-09T09:12:01.661Z,8.00
2017-11-09T09:14:32.290Z,8.00
2017-11-09T09:17:03.524Z,8.00
2017-11-09T09:19:34.275Z,8.10
2017-11-09T09:22:05.227Z,8.10
2017-11-09T09:24:36.249Z,8.10
2017-11-09T09:27:07.774Z,8.10
2017-11-09T09:29:38.546Z,8.10
2017-11-09T09:32:09.362Z,8.10
2017-11-09T09:34:49.538Z,8.20
2017-11-09T09:37:36.688Z,8.30
2017-11-09T09:40:17.524Z,8.30
2017-11-09T09:42:55.711Z,8.20
2017-11-09T09:45:26.555Z,8.20
2017-11-09T09:47:58.316Z,8.20
2017-11-09T09:50:29.712Z,8.30
2017-11-09T09:53:01.067Z,8.30
2017-11-09T09:55:32.252Z,8.30
2017-11-09T09:58:06.909Z,8.40
2017-11-09T10:00:41.616Z,8.50
2017-11-09T10:03:15.008Z,8.50
2017-11-09T10:05:49.134Z,8.50
2017-11-09T10:08:20.358Z,8.40
2017-11-09T10:10:51.106Z,8.30
2017-11-09T10:13:22.780Z,8.30
2017-11-09T10:15:54.223Z,8.30
2017-11-09T10:18:25.237Z,8.30
2017-11-09T10:20:56.615Z,8.30
2017-11-09T10:23:27.559Z,8.20
2017-11-09T10:25:58.096Z,8.30
2017-11-09T10:28:29.398Z,8.50
2017-11-09T10:31:00.334Z,8.40
2017-11-09T10:33:30.686Z,8.60
2017-11-09T10:36:01.937Z,8.50
2017-11-09T10:38:34.085Z,8.50
2017-11-09T10:41:06.485Z,8.60
2017-11-09T10:43:39.149Z,8.60
2017-11-09T10:46:10.065Z,8.60
2017-11-09T10:48:40.693Z,8.50
2017-11-09T10:51:12.182Z,8.50
2017-11-09T10:53:42.464Z,8.50
2017-11-09T10:56:14.342Z,8.70
2017-11-09T10:58:46.404Z,8.70
2017-11-09T11:01:16.627Z,8.70
2017-11-09T11:03:47.683Z,8.80
2017-11-09T11:06:19.245Z,8.70
2017-11-09T11:08:53.016Z,8.60
2017-11-09T11:11:24.084Z,8.70
2017-11-09T11:13:54.932Z,8.60
2017-11-09T11:16:26.713Z,8.50
2017-11-09T11:18:57.575Z,8.50
2017-11-09T11:21:27.947Z,8.50
2017-11-09T11:23:59.382Z,8.50
2017-11-09T11:26:30.488Z,8.50
2017-11-09T11:29:03.294Z,8.50
2017-11-09T11:31:34.744Z,8.60
2017-11-09T11:34:05.611Z,8.70
2017-11-09T11:36:36.233Z,8.70
2017-11-09T11:39:06.813Z,8.70
2017-11-09T11:41:37.589Z,8.60
2017-11-09T11:44:08.101Z,8.80
2017-11-09T11:46:40.082Z,8.80
2017-11-09T11:49:10.633Z,8.80
2017-11-09T11:51:41.832Z,8.80
2017-11-09T11:54:13.101Z,8.80
2017-11-09T11:56:43.592Z,8.80
2017-11-09T11:59:14.898Z,8.80
2017-11-09T12:01:45.833Z,8.70
2017-11-09T12:04:24.194Z,8.50
2017-11-09T12:06:54.685Z,8.60
2017-11-09T12:09:25.161Z,8.60
2017-11-09T12:12:01.413Z,8.60
2017-11-09T12:14:32.718Z,8.70
2017-11-09T12:17:03.646Z,8.70
2017-11-09T12:19:34.757Z,8.70
2017-11-09T12:22:05.600Z,8.70
2017-11-09T12:24:36.594Z,8.70
2017-11-09T12:27:08.736Z,8.60
2017-11-09T12:29:39.926Z,8.60
2017-11-09T12:32:11.354Z,8.70
2017-11-09T12:34:43.946Z,8.70
2017-11-09T12:37:14.577Z,8.70
2017-11-09T12:39:46.374Z,8.70
2017-11-09T12:42:16.797Z,8.70
2017-11-09T12:44:48.359Z,8.80
2017-11-09T12:47:19.234Z,8.80
2017-11-09T12:49:51.411Z,8.80
2017-11-09T12:52:24.688Z,8.80
2017-11-09T12:54:55.272Z,8.80
2017-11-09T12:57:25.801Z,8.90
2017-11-09T12:59:58.156Z,8.90
2017-11-09T13:02:28.788Z,8.80
2017-11-09T13:04:59.185Z,8.90
2017-11-09T13:07:30.179Z,8.90
2017-11-09T13:10:00.465Z,8.80
2017-11-09T13:12:31.799Z,8.80
2017-11-09T13:15:02.298Z,8.80
2017-11-09T13:17:32.793Z,8.80
2017-11-09T13:20:03.309Z,8.70
2017-11-09T13:22:33.655Z,8.70
2017-11-09T13:25:06.362Z,8.80
2017-11-09T13:27:37.282Z,8.70
2017-11-09T13:30:07.977Z,8.60
2017-11-09T13:32:43.733Z,8.70
2017-11-09T13:35:15.221Z,8.80
2017-11-09T13:37:47.293Z,8.80
2017-11-09T13:40:21.473Z,8.60
2017-11-09T13:42:52.039Z,8.60
2017-11-09T13:45:23.024Z,8.70
2017-11-09T13:47:54.374Z,8.60
2017-11-09T13:50:26.598Z,8.70
2017-11-09T13:52:56.968Z,8.60
2017-11-09T13:55:27.474Z,8.50
2017-11-09T13:57:58.388Z,8.50
2017-11-09T14:00:30.117Z,8.40
2017-11-09T14:03:01.397Z,8.30
2017-11-09T14:05:33.079Z,8.30
2017-11-09T14:08:04.013Z,8.30
2017-11-09T14:10:35.841Z,8.30
2017-11-09T14:13:07.638Z,8.40
2017-11-09T14:15:40.181Z,8.30
2017-11-09T14:18:11.744Z,8.20
2017-11-09T14:20:43.425Z,8.10
2017-11-09T14:23:14.838Z,8.00
2017-11-09T14:25:46.125Z,8.10
2017-11-09T14:28:17.678Z,8.00
2017-11-09T14:30:48.957Z,8.20
2017-11-09T14:33:21.339Z,8.10
2017-11-09T14:35:54.412Z,8.00
2017-11-09T14:38:32.165Z,8.00
2017-11-09T14:41:03.173Z,7.90
2017-11-09T14:43:33.541Z,7.80
2017-11-09T14:46:05.428Z,7.80
2017-11-09T14:48:36.007Z,7.90
2017-11-09T14:51:06.949Z,7.90
2017-11-09T14:53:38.332Z,7.80
2017-11-09T14:56:09.146Z,7.80
2017-11-09T14:58:39.376Z,7.80
2017-11-09T15:01:10.425Z,7.80
2017-11-09T15:03:40.916Z,7.70
2017-11-09T15:06:11.411Z,7.70
2017-11-09T15:08:43.601Z,7.70
2017-11-09T15:11:15.379Z,7.70
2017-11-09T15:13:46.177Z,7.80
2017-11-09T15:16:16.814Z,7.90
2017-11-09T15:18:49.241Z,7.80
2017-11-09T15:21:22.609Z,7.80
2017-11-09T15:23:55.612Z,7.80
2017-11-09T15:26:26.576Z,7.80
2017-11-09T15:28:57.171Z,7.80
2017-11-09T15:31:28.804Z,7.80
2017-11-09T15:33:59.393Z,7.80
2017-11-09T15:36:30.733Z,7.80
2017-11-09T15:39:02.181Z,7.80
2017-11-09T15:41:33.120Z,7.70
2017-11-09T15:44:04.778Z,7.60
2017-11-09T15:46:36.118Z,7.70
2017-11-09T15:49:08.137Z,7.70
2017-11-09T15:51:40.052Z,7.70
2017-11-09T15:54:10.330Z,7.60
2017-11-09T15:56:43.229Z,7.60
2017-11-09T15:59:13.678Z,7.60
2017-11-09T16:01:46.438Z,7.60
2017-11-09T16:04:18.095Z,7.60
2017-11-09T16:06:49.516Z,7.70
2017-11-09T16:09:21.745Z,7.60
2017-11-09T16:11:53.233Z,7.70
2017-11-09T16:14:24.401Z,7.50
2017-11-09T16:16:55.374Z,7.50
2017-11-09T16:19:31.699Z,7.50
2017-11-09T16:22:02.649Z,7.50
2017-11-09T16:24:35.240Z,7.60
2017-11-09T16:27:06.052Z,7.60
2017-11-09T16:29:37.672Z,7.60
2017-11-09T16:32:09.990Z,7.60
2017-11-09T16:34:40.536Z,7.60
2017-11-09T16:37:12.733Z,7.60
2017-11-09T16:39:43.251Z,7.50
2017-11-09T16:42:13.777Z,7.50
2017-11-09T16:44:44.199Z,7.50
2017-11-09T16:47:14.815Z,7.50
2017-11-09T16:49:45.628Z,7.50
2017-11-09T16:52:16.314Z,7.50
2017-11-09T16:54:47.415Z,7.60
2017-11-09T16:57:19.000Z,7.60
2017-11-09T16:59:50.018Z,7.60
2017-11-09T17:02:21.699Z,7.60
2017-11-09T17:04:52.605Z,7.60
2017-11-09T17:07:25.674Z,7.60
2017-11-09T17:09:56.511Z,7.60
2017-11-09T17:12:27.624Z,7.60
2017-11-09T17:15:02.402Z,7.60
2017-11-09T17:17:33.099Z,7.60
2017-11-09T17:20:03.769Z,7.60
2017-11-09T17:22:35.321Z,7.60
2017-11-09T17:25:07.694Z,7.60
2017-11-09T17:27:38.015Z,7.70
2017-11-09T17:30:09.272Z,7.70
2017-11-09T17:32:40.522Z,7.70
2017-11-09T17:35:11.162Z,7.70
2017-11-09T17:37:41.759Z,7.70
2017-11-09T17:40:19.341Z,7.70
2017-11-09T17:42:54.895Z,7.70
2017-11-09T17:45:26.062Z,7.80
2017-11-09T17:47:57.311Z,7.80
2017-11-09T17:50:34.823Z,7.80
2017-11-09T17:53:08.005Z,7.80
2017-11-09T17:55:40.845Z,7.80
2017-11-09T17:58:12.058Z,7.90
2017-11-09T18:00:45.199Z,7.90
2017-11-09T18:03:17.528Z,7.90
2017-11-09T18:05:49.535Z,7.80
2017-11-09T18:08:22.244Z,7.80
2017-11-09T18:10:53.983Z,7.80
2017-11-09T18:13:26.192Z,7.90
2017-11-09T18:15:57.475Z,7.80
2017-11-09T18:18:28.873Z,7.80
2017-11-09T18:21:00.172Z,7.80
2017-11-09T18:23:30.920Z,7.80
2017-11-09T18:26:01.604Z,7.80
2017-11-09T18:28:32.471Z,7.80
2017-11-09T18:31:03.368Z,7.90
2017-11-09T18:33:34.728Z,7.90
2017-11-09T18:36:06.622Z,7.90
2017-11-09T18:38:37.457Z,7.80
2017-11-09T18:41:08.460Z,7.90
2017-11-09T18:43:39.403Z,7.90
2017-11-09T18:46:25.576Z,7.80
2017-11-09T18:48:57.058Z,7.80
2017-11-09T18:51:29.476Z,7.70
2017-11-09T18:54:00.304Z,7.70
2017-11-09T18:56:31.881Z,7.80
2017-11-09T18:59:04.297Z,7.70
2017-11-09T19:01:35.164Z,7.80
2017-11-09T19:04:05.874Z,7.70
2017-11-09T19:06:37.439Z,7.70
2017-11-09T19:09:09.463Z,7.70
2017-11-09T19:11:40.035Z,7.70
2017-11-09T19:14:11.350Z,7.70
2017-11-09T19:16:42.999Z,7.70
2017-11-09T19:19:14.372Z,7.60
2017-11-09T19:21:45.418Z,7.60
2017-11-09T19:24:16.738Z,7.60
2017-11-09T19:26:48.847Z,7.60
2017-11-09T19:29:19.778Z,7.60
2017-11-09T19:31:51.420Z,7.60
2017-11-09T19:34:24.008Z,7.60
2017-11-09T19:36:54.629Z,7.70
2017-11-09T19:39:25.471Z,7.70
2017-11-09T19:41:57.137Z,7.70
2017-11-09T19:44:28.338Z,7.70
2017-11-09T19:46:59.552Z,7.60
2017-11-09T19:49:30.225Z,7.60
2017-11-09T19:52:01.044Z,7.60
2017-11-09T19:54:31.607Z,7.50
2017-11-09T19:57:02.015Z,7.50
2017-11-09T19:59:33.779Z,7.50
2017-11-09T20:02:04.226Z,7.60
2017-11-09T20:04:34.899Z,7.60
2017-11-09T20:07:06.272Z,7.50
2017-11-09T20:09:37.796Z,7.50
2017-11-09T20:12:09.107Z,7.50
2017-11-09T20:14:41.465Z,7.50
2017-11-09T20:17:12.404Z,7.50
2017-11-09T20:19:43.223Z,7.50
2017-11-09T20:22:14.468Z,7.50
2017-11-09T20:24:45.115Z,7.50
2017-11-09T20:27:15.515Z,7.50
2017-11-09T20:29:47.100Z,7.50
2017-11-09T20:32:17.635Z,7.50
2017-11-09T20:34:49.665Z,7.50
2017-11-09T20:37:20.904Z,7.40
2017-11-09T20:39:52.560Z,7.50
2017-11-09T20:42:24.341Z,7.50
2017-11-09T20:44:55.142Z,7.50
2017-11-09T20:47:26.932Z,7.50
2017-11-09T20:49:58.137Z,7.50
2017-11-09T20:52:29.606Z,7.60
2017-11-09T20:55:00.004Z,7.60
2017-11-09T20:57:33.488Z,7.60
2017-11-09T21:00:03.983Z,7.60
2017-11-09T21:02:34.413Z,7.60
2017-11-09T21:05:04.788Z,7.60
2017-11-09T21:07:37.890Z,7.60
2017-11-09T21:10:09.615Z,7.60
2017-11-09T21:12:40.929Z,7.60
2017-11-09T21:15:11.238Z,7.60
2017-11-09T21:17:41.593Z,7.60
2017-11-09T21:20:12.597Z,7.60
2017-11-09T21:22:43.549Z,7.60
2017-11-09T21:25:14.682Z,7.60
2017-11-09T21:27:46.014Z,7.60
2017-11-09T21:30:17.298Z,7.60
2017-11-09T21:39:35.907Z,7.60
2017-11-09T21:42:06.373Z,7.60
2017-11-09T21:44:36.930Z,7.50
2017-11-09T21:47:08.892Z,7.50
2017-11-09T21:49:39.195Z,7.50
2017-11-09T21:52:10.877Z,7.50
2017-11-09T21:54:41.916Z,7.50
2017-11-09T21:57:13.382Z,7.50
2017-11-09T21:59:44.616Z,7.50
2017-11-09T22:02:16.143Z,7.50
2017-11-09T22:04:46.452Z,7.50
2017-11-09T22:07:17.687Z,7.50
2017-11-09T22:09:48.338Z,7.50
2017-11-09T22:12:22.381Z,7.50
2017-11-09T22:14:53.394Z,7.50
2017-11-09T22:17:24.022Z,7.50
2017-11-09T22:19:55.911Z,7.50
2017-11-09T22:22:26.326Z,7.50
2017-11-09T22:24:57.540Z,7.40
2017-11-09T22:27:27.870Z,7.50
2017-11-09T22:29:58.750Z,7.50
2017-11-09T22:32:29.057Z,7.60
2017-11-09T22:35:00.301Z,7.60
2017-11-09T22:37:31.050Z,7.50
2017-11-09T22:40:01.121Z,7.50
2017-11-09T22:42:32.844Z,7.60
2017-11-09T22:45:05.189Z,7.60
2017-11-09T22:47:36.303Z,7.60
2017-11-09T22:50:07.477Z,7.60
2017-11-09T22:52:39.024Z,7.60
2017-11-09T22:55:10.928Z,7.60
2017-11-09T22:57:41.860Z,7.60
2017-11-09T23:00:15.727Z,7.60
2017-11-09T23:02:46.635Z,7.60
2017-11-09T23:05:18.129Z,7.70
2017-11-09T23:07:49.426Z,7.60
2017-11-09T23:10:20.395Z,7.70
2017-11-09T23:12:51.545Z,7.60
2017-11-09T23:15:22.808Z,7.70
2017-11-09T23:17:53.851Z,7.70
2017-11-09T23:20:24.770Z,7.70
2017-11-09T23:22:55.521Z,7.70
2017-11-09T23:25:26.849Z,7.60
2017-11-09T23:27:57.606Z,7.70
2017-11-09T23:30:29.250Z,7.70
2017-11-09T23:33:00.276Z,7.70
2017-11-09T23:35:30.727Z,7.70
2017-11-09T23:38:01.357Z,7.70
2017-11-09T23:40:33.511Z,7.70
2017-11-09T23:43:04.363Z,7.70
2017-11-09T23:45:38.457Z,7.80
2017-11-09T23:48:08.667Z,7.70
2017-11-09T23:50:39.969Z,7.70
2017-11-09T23:53:11.260Z,7.70
2017-11-09T23:55:44.409Z,7.70
2017-11-09T23:58:15.994Z,7.70
